臺北終端管制區 - 桃園北區雷達席

METAR RCTP 160730Z 02011KT 350V050 9999 FEW010 SCT013 22/18 Q1012 NOSIG RMK A2991=

站台狀態:Offline
最後更新:2021-04-16 15:30:01